createdAt,value
2022-11-05T00:00:01.692Z,100.00
2022-11-05T00:05:24.735Z,100.00
2022-11-05T00:10:32.767Z,100.00
2022-11-05T00:15:54.569Z,100.00
2022-11-05T00:20:58.572Z,100.00
2022-11-05T00:26:08.154Z,100.00
2022-11-05T00:31:14.248Z,100.00
2022-11-05T00:36:17.980Z,100.00
2022-11-05T00:41:22.086Z,100.00
2022-11-05T00:46:25.692Z,100.00
2022-11-05T00:51:29.277Z,100.00
2022-11-05T00:56:32.949Z,100.00
2022-11-05T01:01:46.677Z,100.00
2022-11-05T01:06:50.889Z,100.00
2022-11-05T01:11:55.985Z,100.00
2022-11-05T01:16:59.872Z,100.00
2022-11-05T01:22:03.613Z,100.00
2022-11-05T01:27:07.522Z,100.00
2022-11-05T01:32:11.093Z,100.00
2022-11-05T01:37:14.687Z,100.00
2022-11-05T01:42:26.293Z,100.00
2022-11-05T01:47:43.851Z,100.00
2022-11-05T01:53:16.017Z,100.00
2022-11-05T01:58:23.635Z,100.00
2022-11-05T02:03:27.949Z,100.00
2022-11-05T02:08:56.795Z,100.00
2022-11-05T02:14:00.679Z,100.00
2022-11-05T02:19:39.925Z,100.00
2022-11-05T02:25:08.433Z,100.00
2022-11-05T02:30:24.896Z,100.00
2022-11-05T02:35:52.850Z,100.00
2022-11-05T02:41:09.839Z,100.00
2022-11-05T02:46:27.912Z,100.00
2022-11-05T02:51:38.246Z,100.00
2022-11-05T02:56:45.981Z,100.00
2022-11-05T03:01:52.296Z,100.00
2022-11-05T03:07:15.420Z,100.00
2022-11-05T03:12:24.787Z,100.00
2022-11-05T03:17:40.587Z,100.00
2022-11-05T03:22:50.776Z,100.00
2022-11-05T03:28:01.618Z,100.00
2022-11-05T03:33:12.195Z,100.00
2022-11-05T03:38:24.933Z,100.00
2022-11-05T03:43:33.824Z,100.00
2022-11-05T03:48:48.283Z,100.00
2022-11-05T03:53:58.504Z,100.00
2022-11-05T03:59:12.683Z,100.00
2022-11-05T04:04:16.712Z,100.00
2022-11-05T04:09:38.883Z,100.00
2022-11-05T04:14:42.608Z,100.00
2022-11-05T04:20:05.169Z,100.00
2022-11-05T04:25:09.680Z,100.00
2022-11-05T04:30:21.947Z,100.00
2022-11-05T04:35:26.246Z,100.00
2022-11-05T04:40:30.866Z,100.00
2022-11-05T04:45:36.420Z,100.00
2022-11-05T04:50:40.521Z,100.00
2022-11-05T04:55:44.041Z,100.00
2022-11-05T05:00:50.083Z,100.00
2022-11-05T05:05:54.003Z,100.00
2022-11-05T05:11:02.343Z,100.00
2022-11-05T05:16:10.904Z,100.00
2022-11-05T05:21:34.211Z,100.00
2022-11-05T05:26:39.404Z,100.00
2022-11-05T05:31:43.625Z,100.00
2022-11-05T05:36:47.304Z,100.00
2022-11-05T05:41:51.161Z,100.00
2022-11-05T05:46:56.298Z,100.00
2022-11-05T05:51:59.778Z,100.00
2022-11-05T05:57:03.927Z,100.00
2022-11-05T06:02:07.657Z,100.00
2022-11-05T06:07:12.235Z,100.00
2022-11-05T06:12:15.728Z,100.00
2022-11-05T06:17:19.285Z,100.00
2022-11-05T06:22:23.162Z,100.00
2022-11-05T06:27:26.837Z,100.00
2022-11-05T06:32:32.252Z,100.00
2022-11-05T06:37:35.807Z,100.00
2022-11-05T06:42:39.441Z,100.00
2022-11-05T06:47:43.323Z,100.00
2022-11-05T06:53:00.532Z,100.00
2022-11-05T06:58:04.412Z,100.00
2022-11-05T07:03:14.075Z,100.00
2022-11-05T07:08:17.866Z,100.00
2022-11-05T07:13:21.485Z,100.00
2022-11-05T07:18:27.147Z,100.00
2022-11-05T07:23:30.606Z,100.00
2022-11-05T07:28:34.144Z,100.00
2022-11-05T07:33:38.529Z,100.00
2022-11-05T07:38:41.917Z,100.00
2022-11-05T07:43:45.397Z,100.00
2022-11-05T07:48:48.767Z,100.00
2022-11-05T07:53:52.460Z,100.00
2022-11-05T07:58:56.021Z,100.00
2022-11-05T08:03:59.738Z,100.00
2022-11-05T08:09:03.497Z,100.00
2022-11-05T08:14:07.175Z,100.00
2022-11-05T08:19:10.986Z,100.00
2022-11-05T08:24:15.458Z,100.00
2022-11-05T08:29:19.105Z,100.00
2022-11-05T08:34:22.880Z,100.00
2022-11-05T08:39:26.307Z,100.00
2022-11-05T08:44:30.268Z,100.00
2022-11-05T08:49:40.566Z,100.00
2022-11-05T08:54:45.436Z,100.00
2022-11-05T08:59:49.232Z,100.00
2022-11-05T09:04:53.058Z,100.00
2022-11-05T09:09:56.708Z,100.00
2022-11-05T09:15:00.291Z,100.00
2022-11-05T09:20:05.152Z,100.00
2022-11-05T09:25:09.518Z,100.00
2022-11-05T09:30:14.523Z,100.00
2022-11-05T09:35:18.161Z,100.00
2022-11-05T09:40:23.345Z,100.00
2022-11-05T09:45:29.319Z,100.00
2022-11-05T09:50:32.827Z,100.00
2022-11-05T09:55:40.512Z,100.00
2022-11-05T10:00:45.586Z,100.00
2022-11-05T10:05:52.149Z,100.00
2022-11-05T10:11:08.273Z,100.00
2022-11-05T10:16:28.511Z,100.00
2022-11-05T10:22:04.418Z,100.00
2022-11-05T10:26:56.632Z,100.00
2022-11-05T10:32:02.278Z,100.00
2022-11-05T10:37:06.341Z,100.00
2022-11-05T10:42:31.453Z,100.00
2022-11-05T10:47:41.042Z,100.00
2022-11-05T10:52:56.648Z,100.00
2022-11-05T10:58:33.859Z,100.00
2022-11-05T11:03:52.100Z,100.00
2022-11-05T11:09:04.167Z,100.00
2022-11-05T11:14:17.709Z,100.00
2022-11-05T11:19:24.758Z,100.00
2022-11-05T11:24:33.299Z,100.00
2022-11-05T11:29:45.077Z,100.00
2022-11-05T11:34:54.887Z,100.00
2022-11-05T11:40:13.923Z,97.23
2022-11-05T11:45:37.643Z,98.10
2022-11-05T11:50:47.172Z,100.00
2022-11-05T11:56:02.829Z,100.00
2022-11-05T12:01:43.184Z,100.00
2022-11-05T12:07:03.779Z,100.00
2022-11-05T12:12:15.606Z,100.00
2022-11-05T12:17:44.241Z,100.00
2022-11-05T12:22:50.683Z,100.00
2022-11-05T12:28:31.768Z,87.46
2022-11-05T12:33:43.367Z,87.01
2022-11-05T12:38:58.867Z,80.79
2022-11-05T12:44:05.266Z,97.12
2022-11-05T12:49:21.414Z,77.35
2022-11-05T12:54:25.259Z,85.05
2022-11-05T12:59:31.866Z,77.77
2022-11-05T13:04:48.020Z,61.37
2022-11-05T13:10:00.602Z,67.40
2022-11-05T13:15:16.168Z,63.74
2022-11-05T13:20:27.543Z,65.42
2022-11-05T13:25:36.453Z,62.29
2022-11-05T13:30:47.115Z,67.82
2022-11-05T13:36:37.212Z,60.11
2022-11-05T13:42:06.859Z,65.66
2022-11-05T13:47:38.421Z,68.58
2022-11-05T13:53:10.247Z,73.32
2022-11-05T13:58:41.708Z,79.27
2022-11-05T14:03:49.299Z,68.18
2022-11-05T14:08:58.520Z,71.93
2022-11-05T14:14:05.134Z,83.19
2022-11-05T14:19:20.879Z,82.72
2022-11-05T14:24:24.448Z,83.19
2022-11-05T14:29:38.662Z,78.21
2022-11-05T14:34:46.369Z,96.88
2022-11-05T14:39:51.308Z,100.00
2022-11-05T14:45:21.171Z,100.00
2022-11-05T14:50:38.933Z,100.00
2022-11-05T14:55:44.574Z,100.00
2022-11-05T15:00:48.893Z,100.00
2022-11-05T15:05:53.804Z,100.00
2022-11-05T15:11:08.255Z,100.00
2022-11-05T15:16:20.683Z,100.00
2022-11-05T15:21:25.808Z,100.00
2022-11-05T15:26:44.229Z,100.00
2022-11-05T15:31:49.386Z,100.00
2022-11-05T15:37:00.944Z,100.00
2022-11-05T15:42:06.915Z,100.00
2022-11-05T15:47:28.787Z,100.00
2022-11-05T15:52:43.406Z,100.00
2022-11-05T15:57:57.932Z,100.00
2022-11-05T16:03:07.157Z,100.00
2022-11-05T16:08:20.841Z,100.00
2022-11-05T16:13:42.852Z,100.00
2022-11-05T16:18:46.783Z,100.00
2022-11-05T16:23:50.186Z,100.00
2022-11-05T16:28:54.911Z,100.00
2022-11-05T16:34:01.872Z,100.00
2022-11-05T16:39:05.938Z,100.00
2022-11-05T16:44:10.115Z,100.00
2022-11-05T16:49:14.140Z,100.00
2022-11-05T16:54:17.703Z,100.00
2022-11-05T16:59:21.246Z,100.00
2022-11-05T17:04:25.378Z,100.00
2022-11-05T17:09:28.821Z,100.00
2022-11-05T17:14:32.621Z,100.00
2022-11-05T17:19:36.309Z,100.00
2022-11-05T17:24:42.255Z,100.00
2022-11-05T17:29:46.029Z,100.00
2022-11-05T17:34:49.527Z,100.00
2022-11-05T17:39:53.141Z,100.00
2022-11-05T17:44:57.557Z,100.00
2022-11-05T17:50:01.067Z,100.00
2022-11-05T17:55:18.098Z,100.00
2022-11-05T18:00:27.326Z,100.00
2022-11-05T18:05:31.844Z,100.00
2022-11-05T18:10:40.140Z,100.00
2022-11-05T18:15:44.795Z,100.00
2022-11-05T18:20:48.837Z,100.00
2022-11-05T18:25:52.698Z,100.00
2022-11-05T18:30:56.661Z,100.00
2022-11-05T18:36:00.187Z,100.00
2022-11-05T18:41:07.889Z,100.00
2022-11-05T18:46:29.242Z,100.00
2022-11-05T18:51:35.791Z,100.00
2022-11-05T18:56:45.821Z,100.00
2022-11-05T19:01:52.186Z,100.00
2022-11-05T19:06:57.894Z,100.00
2022-11-05T19:12:07.223Z,100.00
2022-11-05T19:17:11.881Z,100.00
2022-11-05T19:22:16.181Z,100.00
2022-11-05T19:27:19.988Z,100.00
2022-11-05T19:32:23.561Z,100.00
2022-11-05T19:37:27.035Z,100.00
2022-11-05T19:42:30.928Z,100.00
2022-11-05T19:47:34.637Z,100.00
2022-11-05T19:52:38.122Z,100.00
2022-11-05T19:57:42.883Z,100.00
2022-11-05T20:02:47.272Z,100.00
2022-11-05T20:08:01.266Z,100.00
2022-11-05T20:13:04.899Z,100.00
2022-11-05T20:18:09.372Z,100.00
2022-11-05T20:23:14.295Z,100.00
2022-11-05T20:28:18.145Z,100.00
2022-11-05T20:33:21.977Z,100.00
2022-11-05T20:38:25.814Z,100.00
2022-11-05T20:43:31.127Z,100.00
2022-11-05T20:48:36.450Z,100.00
2022-11-05T20:53:40.488Z,100.00
2022-11-05T20:58:44.224Z,100.00
2022-11-05T21:03:48.745Z,100.00
2022-11-05T21:08:53.334Z,100.00
2022-11-05T21:13:56.824Z,100.00
2022-11-05T21:19:00.740Z,100.00
2022-11-05T21:24:04.231Z,100.00
2022-11-05T21:29:08.621Z,100.00
2022-11-05T21:34:12.287Z,100.00
2022-11-05T21:39:15.876Z,100.00
2022-11-05T21:44:19.509Z,100.00
2022-11-05T21:49:23.025Z,100.00
2022-11-05T21:54:54.457Z,100.00
2022-11-05T21:59:59.819Z,100.00
2022-11-05T22:05:04.576Z,100.00
2022-11-05T22:10:15.812Z,100.00
2022-11-05T22:15:19.859Z,100.00
2022-11-05T22:20:23.487Z,100.00
2022-11-05T22:25:26.942Z,100.00
2022-11-05T22:30:30.746Z,100.00
2022-11-05T22:35:34.270Z,100.00
2022-11-05T22:40:39.222Z,100.00
2022-11-05T22:45:44.635Z,100.00
2022-11-05T22:51:13.834Z,100.00
2022-11-05T22:56:20.600Z,100.00
2022-11-05T23:01:25.383Z,100.00
2022-11-05T23:06:50.491Z,100.00
2022-11-05T23:11:54.720Z,100.00
2022-11-05T23:17:17.013Z,100.00
2022-11-05T23:22:42.721Z,100.00
2022-11-05T23:27:48.282Z,100.00
2022-11-05T23:32:53.100Z,100.00
2022-11-05T23:38:15.441Z,100.00
2022-11-05T23:43:37.858Z,100.00
2022-11-05T23:48:41.658Z,100.00
2022-11-05T23:53:45.328Z,100.00
2022-11-05T23:58:49.346Z,100.00
